createdAt,value
2022-12-31T00:00:55.624Z,99916.78
2022-12-31T00:02:59.220Z,99921.19
2022-12-31T00:05:02.619Z,99916.81
2022-12-31T00:07:05.952Z,99915.97
2022-12-31T00:09:09.657Z,99905.53
2022-12-31T00:11:13.632Z,99911.56
2022-12-31T00:13:17.220Z,99917.72
2022-12-31T00:15:20.650Z,99915.97
2022-12-31T00:17:25.402Z,99922.09
2022-12-31T00:19:28.759Z,99915.13
2022-12-31T00:21:33.788Z,99916.84
2022-12-31T00:23:37.758Z,99919.47
2022-12-31T00:25:41.208Z,99914.22
2022-12-31T00:27:44.654Z,99922.13
2022-12-31T00:29:48.021Z,99913.38
2022-12-31T00:31:51.397Z,99921.31
2022-12-31T00:33:58.035Z,99897.66
2022-12-31T00:36:09.680Z,99917.78
2022-12-31T00:38:13.016Z,99916.94
2022-12-31T00:40:16.854Z,99916.09
2022-12-31T00:42:20.199Z,99916.13
2022-12-31T00:44:23.567Z,99911.78
2022-12-31T00:46:27.287Z,99917.91
2022-12-31T00:48:31.041Z,99921.38
2022-12-31T00:50:35.708Z,99916.13
2022-12-31T00:52:39.046Z,99914.38
2022-12-31T00:54:42.402Z,99899.53
2022-12-31T00:56:45.715Z,99902.16
2022-12-31T00:58:49.510Z,99896.94
2022-12-31T01:00:52.893Z,99896.91
2022-12-31T01:02:56.364Z,99900.38
2022-12-31T01:04:59.703Z,99894.28
2022-12-31T01:07:04.635Z,99886.41
2022-12-31T01:09:08.772Z,99890.81
2022-12-31T01:11:22.295Z,99869.81
2022-12-31T01:13:26.045Z,99880.38
2022-12-31T01:15:29.578Z,99877.78
2022-12-31T01:17:32.918Z,99886.53
2022-12-31T01:19:36.365Z,99883.91
2022-12-31T01:21:41.236Z,99890.03
2022-12-31T01:23:46.149Z,99883.97
2022-12-31T01:25:49.833Z,99888.34
2022-12-31T01:27:53.150Z,99888.34
2022-12-31T01:29:56.465Z,99897.09
2022-12-31T01:31:59.836Z,99891.88
2022-12-31T01:34:03.583Z,99891.03
2022-12-31T01:36:09.861Z,99900.63
2022-12-31T01:38:13.173Z,99876.19
2022-12-31T01:40:18.454Z,99885.81
2022-12-31T01:42:21.872Z,99887.56
2022-12-31T01:44:50.067Z,99896.31
2022-12-31T01:46:56.193Z,99900.69
2022-12-31T01:49:02.839Z,99919.91
2022-12-31T01:51:08.419Z,99916.44
2022-12-31T01:53:12.845Z,99915.53
2022-12-31T01:55:21.342Z,99926.03
2022-12-31T01:57:27.462Z,99928.66
2022-12-31T01:59:31.979Z,99926.94
2022-12-31T02:01:38.974Z,99901.59
2022-12-31T02:03:42.638Z,99919.09
2022-12-31T02:05:50.870Z,99919.97
2022-12-31T02:07:55.806Z,99922.59
2022-12-31T02:10:00.625Z,99914.72
2022-12-31T02:12:05.983Z,99932.22
2022-12-31T02:14:14.365Z,99930.47
2022-12-31T02:16:22.798Z,99924.34
2022-12-31T02:18:35.145Z,99939.19
2022-12-31T02:21:05.707Z,99926.09
2022-12-31T02:23:47.285Z,99920.84
2022-12-31T02:26:05.930Z,99920.84
2022-12-31T02:28:22.667Z,99924.34
2022-12-31T02:30:29.865Z,99928.72
2022-12-31T02:32:39.957Z,99920.84
2022-12-31T02:34:48.739Z,99921.72
2022-12-31T02:36:56.074Z,99928.69
2022-12-31T02:39:00.252Z,99930.47
2022-12-31T02:41:03.588Z,99926.06
2022-12-31T02:43:07.265Z,99925.19
2022-12-31T02:45:13.134Z,99933.94
2022-12-31T02:47:31.798Z,99938.31
2022-12-31T02:49:45.063Z,99942.69
2022-12-31T02:52:00.166Z,99922.59
2022-12-31T02:54:19.643Z,99936.56
2022-12-31T02:56:28.139Z,99943.56
2022-12-31T02:58:56.189Z,99936.56
2022-12-31T03:01:18.445Z,99935.66
2022-12-31T03:03:24.006Z,99937.41
2022-12-31T03:05:30.441Z,99930.38
2022-12-31T03:07:34.300Z,99937.34
2022-12-31T03:09:38.445Z,99938.16
2022-12-31T03:11:59.948Z,99941.63
2022-12-31T03:14:03.275Z,99931.16
2022-12-31T03:16:16.580Z,99943.38
2022-12-31T03:18:41.889Z,99940.75
2022-12-31T03:21:12.260Z,99951.25
2022-12-31T03:23:19.629Z,99935.34
2022-12-31T03:25:34.493Z,99953.75
2022-12-31T03:27:36.856Z,99940.59
2022-12-31T03:29:40.163Z,99949.34
2022-12-31T03:31:43.525Z,99966.03
2022-12-31T03:33:46.896Z,99953.81
2022-12-31T03:35:52.535Z,99950.31
2022-12-31T03:37:56.408Z,99953.84
2022-12-31T03:39:59.921Z,99975.75
2022-12-31T03:42:03.416Z,99961.75
2022-12-31T03:44:06.866Z,99968.75
2022-12-31T03:46:10.229Z,99964.34
2022-12-31T03:48:14.281Z,99957.34
2022-12-31T03:50:19.312Z,99969.63
2022-12-31T03:52:24.373Z,99973.09
2022-12-31T03:54:27.757Z,99971.34
2022-12-31T03:56:31.927Z,99986.22
2022-12-31T03:58:35.531Z,99965.22
2022-12-31T04:00:39.049Z,99968.75
2022-12-31T04:02:43.328Z,99963.50
2022-12-31T04:04:46.752Z,99974.91
2022-12-31T04:06:50.145Z,99975.81
2022-12-31T04:08:54.822Z,99969.69
2022-12-31T04:10:58.293Z,99955.66
2022-12-31T04:13:04.502Z,99957.44
2022-12-31T04:15:09.556Z,99950.41
2022-12-31T04:17:12.892Z,99940.78
2022-12-31T04:19:16.225Z,99957.44
2022-12-31T04:21:21.037Z,99967.03
2022-12-31T04:23:24.364Z,99957.44
2022-12-31T04:25:29.123Z,99960.06
2022-12-31T04:27:32.468Z,99960.91
2022-12-31T04:29:35.854Z,99958.28
2022-12-31T04:31:39.225Z,99970.53
2022-12-31T04:33:42.596Z,99981.91
2022-12-31T04:35:46.232Z,99967.91
2022-12-31T04:37:49.601Z,99997.66
2022-12-31T04:39:52.877Z,99999.41
2022-12-31T04:41:57.623Z,99994.16
2022-12-31T04:44:01.124Z,99983.59
2022-12-31T04:46:04.675Z,99992.41
2022-12-31T04:48:09.035Z,99994.09
2022-12-31T04:50:12.361Z,100002.88
2022-12-31T04:52:18.705Z,100011.59
2022-12-31T04:54:22.326Z,100015.97
2022-12-31T04:56:25.905Z,100008.09
2022-12-31T04:58:31.117Z,100017.63
2022-12-31T05:00:34.509Z,100010.59
2022-12-31T05:02:38.277Z,100019.34
2022-12-31T05:04:41.753Z,100001.72
2022-12-31T05:06:45.041Z,100017.47
2022-12-31T05:08:49.355Z,100017.50
2022-12-31T05:10:52.721Z,100023.63
2022-12-31T05:12:56.198Z,100028.00
2022-12-31T05:15:00.894Z,100049.84
2022-12-31T05:17:04.352Z,100022.63
2022-12-31T05:19:09.538Z,100015.59
2022-12-31T05:21:19.308Z,100011.22
2022-12-31T05:23:22.951Z,100020.03
2022-12-31T05:25:26.354Z,100008.59
2022-12-31T05:27:31.534Z,100030.56
2022-12-31T05:29:35.279Z,100036.69
2022-12-31T05:31:39.973Z,100016.47
2022-12-31T05:33:43.285Z,100030.53
2022-12-31T05:35:46.994Z,100030.53
2022-12-31T05:37:50.437Z,100039.25
2022-12-31T05:39:53.750Z,100036.66
2022-12-31T05:41:57.325Z,100039.31
2022-12-31T05:44:00.629Z,100049.72
2022-12-31T05:46:05.367Z,100053.28
2022-12-31T05:48:10.245Z,100084.88
2022-12-31T05:50:16.330Z,100052.31
2022-12-31T05:52:19.863Z,100025.97
2022-12-31T05:54:23.175Z,100041.78
2022-12-31T05:56:26.587Z,100046.97
2022-12-31T05:58:29.867Z,100031.28
2022-12-31T06:00:34.433Z,100025.16
2022-12-31T06:02:37.908Z,100029.53
2022-12-31T06:04:42.675Z,100046.22
2022-12-31T06:06:46.035Z,100053.19
2022-12-31T06:08:50.643Z,100052.31
2022-12-31T06:10:53.938Z,100051.50
2022-12-31T06:12:57.261Z,100055.03
2022-12-31T06:15:00.693Z,100057.69
2022-12-31T06:17:06.270Z,100058.53
2022-12-31T06:19:10.638Z,100076.97
2022-12-31T06:21:15.837Z,100072.56
2022-12-31T06:23:19.224Z,100035.75
2022-12-31T06:25:22.527Z,100084.78
2022-12-31T06:27:25.926Z,100096.22
2022-12-31T06:29:29.724Z,100079.63
2022-12-31T06:31:33.048Z,100100.66
2022-12-31T06:33:36.820Z,100087.50
2022-12-31T06:35:40.168Z,100105.03
2022-12-31T06:37:44.847Z,100106.78
2022-12-31T06:39:48.170Z,100053.41
2022-12-31T06:41:51.545Z,100114.69
2022-12-31T06:43:54.937Z,100120.75
2022-12-31T06:46:01.455Z,100114.59
2022-12-31T06:48:05.782Z,100083.97
2022-12-31T06:50:10.101Z,100123.38
2022-12-31T06:52:13.656Z,100112.81
2022-12-31T06:54:18.328Z,100117.22
2022-12-31T06:56:31.211Z,100126.91
2022-12-31T06:58:37.142Z,100140.00
2022-12-31T07:00:44.284Z,100132.94
2022-12-31T07:03:11.414Z,100130.38
2022-12-31T07:05:37.283Z,100121.56
2022-12-31T07:07:50.771Z,100125.97
2022-12-31T07:10:02.300Z,100131.22
2022-12-31T07:12:17.216Z,100144.38
2022-12-31T07:14:32.757Z,100141.72
2022-12-31T07:16:45.521Z,100138.19
2022-12-31T07:18:55.320Z,100172.44
2022-12-31T07:20:59.168Z,100151.34
2022-12-31T07:23:03.056Z,100141.69
2022-12-31T07:25:09.334Z,100141.72
2022-12-31T07:27:28.839Z,100153.09
2022-12-31T07:29:43.750Z,100141.75
2022-12-31T07:31:58.596Z,100164.53
2022-12-31T07:34:08.419Z,100174.19
2022-12-31T07:36:24.847Z,100161.03
2022-12-31T07:38:36.491Z,100148.75
2022-12-31T07:40:53.509Z,100146.94
2022-12-31T07:43:08.342Z,100159.25
2022-12-31T07:45:19.347Z,100149.56
2022-12-31T07:47:24.625Z,100152.19
2022-12-31T07:49:30.389Z,100147.81
2022-12-31T07:51:34.266Z,100152.16
2022-12-31T07:53:37.739Z,100156.53
2022-12-31T07:55:42.492Z,100156.47
2022-12-31T07:57:56.504Z,100164.38
2022-12-31T08:00:07.183Z,100173.22
2022-12-31T08:02:25.931Z,100164.47
2022-12-31T08:04:34.245Z,100162.72
2022-12-31T08:06:47.491Z,100162.72
2022-12-31T08:08:58.572Z,100181.13
2022-12-31T08:11:13.691Z,100177.63
2022-12-31T08:13:18.346Z,100167.97
2022-12-31T08:15:28.500Z,100179.38
2022-12-31T08:17:34.025Z,100169.78
2022-12-31T08:19:37.847Z,100179.44
2022-12-31T08:21:49.784Z,100181.22
2022-12-31T08:24:04.563Z,100176.81
2022-12-31T08:26:22.486Z,100184.69
2022-12-31T08:28:42.177Z,100204.00
2022-12-31T08:30:55.734Z,100207.53
2022-12-31T08:33:09.606Z,100204.88
2022-12-31T08:35:25.625Z,100188.22
2022-12-31T08:37:37.669Z,100193.44
2022-12-31T08:39:57.824Z,100191.69
2022-12-31T08:42:05.972Z,100191.72
2022-12-31T08:44:19.138Z,100213.63
2022-12-31T08:46:29.080Z,100198.69
2022-12-31T08:48:39.629Z,100217.13
2022-12-31T08:50:43.476Z,100211.00
2022-12-31T08:52:48.762Z,100211.84
2022-12-31T08:54:53.234Z,100222.38
2022-12-31T08:57:05.363Z,100205.69
2022-12-31T08:59:21.710Z,100239.00
2022-12-31T09:01:33.878Z,100212.66
2022-12-31T09:03:52.108Z,100213.50
2022-12-31T09:06:03.661Z,100206.47
2022-12-31T09:08:17.390Z,100215.22
2022-12-31T09:10:25.740Z,100205.56
2022-12-31T09:12:33.917Z,100238.03
2022-12-31T09:14:48.207Z,100238.91
2022-12-31T09:17:01.656Z,100224.00
2022-12-31T09:19:05.077Z,100235.41
2022-12-31T09:21:10.764Z,100234.53
2022-12-31T09:23:14.521Z,100257.34
2022-12-31T09:25:20.320Z,100243.34
2022-12-31T09:27:28.656Z,100264.41
2022-12-31T09:29:44.766Z,100265.22
2022-12-31T09:31:57.275Z,100273.16
2022-12-31T09:34:04.624Z,100311.78
2022-12-31T09:36:12.460Z,100272.34
2022-12-31T09:38:20.685Z,100295.13
2022-12-31T09:40:49.005Z,100302.16
2022-12-31T09:43:10.268Z,100302.97
2022-12-31T09:45:41.300Z,100325.81
2022-12-31T09:48:13.361Z,100310.91
2022-12-31T09:50:40.896Z,100324.06
2022-12-31T09:53:02.661Z,100323.16
2022-12-31T09:55:38.338Z,100333.66
2022-12-31T09:57:55.766Z,100347.75
2022-12-31T10:00:04.631Z,100356.53
2022-12-31T10:02:28.258Z,100338.97
2022-12-31T10:05:01.869Z,100359.16
2022-12-31T10:07:31.162Z,100347.72
2022-12-31T10:10:07.487Z,100364.41
2022-12-31T10:12:36.522Z,100360.91
2022-12-31T10:14:59.743Z,100370.59
2022-12-31T10:17:15.406Z,100347.72
2022-12-31T10:20:09.202Z,100367.91
2022-12-31T10:22:32.085Z,100360.91
2022-12-31T10:24:46.795Z,100353.00
2022-12-31T10:27:14.118Z,100360.91
2022-12-31T10:29:26.427Z,100339.84
2022-12-31T10:31:40.566Z,100345.06
2022-12-31T10:33:52.977Z,100357.38
2022-12-31T10:36:08.733Z,100336.28
2022-12-31T10:38:28.114Z,100346.81
2022-12-31T10:40:52.325Z,100360.00
2022-12-31T10:43:27.256Z,100351.25
2022-12-31T10:46:00.912Z,100356.50
2022-12-31T10:48:39.503Z,100339.00
2022-12-31T10:50:57.041Z,100370.59
2022-12-31T10:53:29.261Z,100347.72
2022-12-31T10:56:01.807Z,100353.00
2022-12-31T10:58:33.644Z,100347.75
2022-12-31T11:00:45.273Z,100357.44
2022-12-31T11:03:28.974Z,100366.16
2022-12-31T11:06:19.617Z,100354.75
2022-12-31T11:08:42.873Z,100375.81
2022-12-31T11:11:20.596Z,100354.75
2022-12-31T11:14:01.845Z,100355.59
2022-12-31T11:16:21.288Z,100366.13
2022-12-31T11:18:34.351Z,100357.31
2022-12-31T11:21:06.527Z,100375.78
2022-12-31T11:23:25.424Z,100358.19
2022-12-31T11:25:41.558Z,100365.22
2022-12-31T11:27:59.370Z,100355.56
2022-12-31T11:30:12.394Z,100362.50
2022-12-31T11:32:31.781Z,100353.72
2022-12-31T11:35:04.354Z,100365.19
2022-12-31T11:37:28.612Z,100349.34
2022-12-31T11:39:43.707Z,100350.22
2022-12-31T11:41:53.152Z,100344.97
2022-12-31T11:44:04.536Z,100340.56
2022-12-31T11:46:27.736Z,100316.00
2022-12-31T11:48:37.817Z,100326.50
2022-12-31T11:50:53.705Z,100327.38
2022-12-31T11:53:24.274Z,100327.38
2022-12-31T11:55:36.033Z,100349.34
2022-12-31T11:57:41.489Z,100319.56
2022-12-31T11:59:44.966Z,100325.69
2022-12-31T12:01:56.933Z,100325.63
2022-12-31T12:04:00.471Z,100313.31
2022-12-31T12:06:05.853Z,100334.44
2022-12-31T12:08:09.217Z,100321.25
2022-12-31T12:10:24.014Z,100323.88
2022-12-31T12:12:27.443Z,100319.53
2022-12-31T12:14:35.270Z,100323.00
2022-12-31T12:16:38.777Z,100330.94
2022-12-31T12:18:46.588Z,100324.81
2022-12-31T12:20:50.068Z,100331.81
2022-12-31T12:22:57.231Z,100315.97
2022-12-31T12:25:05.978Z,100326.53
2022-12-31T12:27:22.473Z,100330.94
2022-12-31T12:29:30.150Z,100338.78
2022-12-31T12:31:34.177Z,100322.88
2022-12-31T12:33:44.615Z,100315.94
2022-12-31T12:35:48.615Z,100311.53
2022-12-31T12:38:01.738Z,100315.09
2022-12-31T12:40:09.344Z,100314.19
2022-12-31T12:42:15.547Z,100314.28
2022-12-31T12:44:18.879Z,100305.50
2022-12-31T12:46:28.577Z,100304.59
2022-12-31T12:48:38.319Z,100308.13
2022-12-31T12:50:46.517Z,100312.56
2022-12-31T12:53:08.740Z,100311.69
2022-12-31T12:55:20.700Z,100313.47
2022-12-31T12:57:30.129Z,100330.19
2022-12-31T12:59:58.406Z,100317.00
2022-12-31T13:02:19.335Z,100324.91
2022-12-31T13:04:48.418Z,100350.31
2022-12-31T13:07:08.744Z,100343.25
2022-12-31T13:09:27.569Z,100349.41
2022-12-31T13:11:44.073Z,100373.09
2022-12-31T13:13:55.784Z,100383.63
2022-12-31T13:16:05.684Z,100366.06
2022-12-31T13:18:17.036Z,100391.63
2022-12-31T13:20:30.754Z,100393.38
2022-12-31T13:22:39.251Z,100390.84
2022-12-31T13:24:55.134Z,100400.53
2022-12-31T13:27:05.527Z,100400.59
2022-12-31T13:29:16.409Z,100421.75
2022-12-31T13:31:27.220Z,100389.28
2022-12-31T13:33:35.308Z,100395.41
2022-12-31T13:35:46.113Z,100439.31
2022-12-31T13:37:52.227Z,100385.81
2022-12-31T13:40:02.311Z,100391.94
2022-12-31T13:42:14.043Z,100384.97
2022-12-31T13:44:25.531Z,100387.56
2022-12-31T13:46:42.585Z,100360.41
2022-12-31T13:48:51.803Z,100377.91
2022-12-31T13:51:02.543Z,100365.66
2022-12-31T13:53:15.088Z,100371.78
2022-12-31T13:55:25.090Z,100364.78
2022-12-31T13:57:40.998Z,100386.72
2022-12-31T13:59:49.508Z,100370.03
2022-12-31T14:01:58.083Z,100379.69
2022-12-31T14:04:08.700Z,100398.97
2022-12-31T14:06:22.211Z,100387.56
2022-12-31T14:08:25.773Z,100374.41
2022-12-31T14:10:42.603Z,100365.66
2022-12-31T14:12:54.755Z,100365.63
2022-12-31T14:15:08.739Z,100371.78
2022-12-31T14:17:20.837Z,100361.25
2022-12-31T14:19:45.156Z,100360.38
2022-12-31T14:21:54.693Z,100369.16
2022-12-31T14:24:07.725Z,100361.28
2022-12-31T14:26:21.479Z,100367.38
2022-12-31T14:28:29.107Z,100365.66
2022-12-31T14:30:38.096Z,100360.41
2022-12-31T14:33:11.012Z,100356.91
2022-12-31T14:35:37.213Z,100339.34
2022-12-31T14:37:49.946Z,100354.25
2022-12-31T14:40:02.508Z,100356.91
2022-12-31T14:42:18.475Z,100357.75
2022-12-31T14:44:35.023Z,100356.03
2022-12-31T14:46:46.037Z,100346.34
2022-12-31T14:48:58.934Z,100349.00
2022-12-31T14:51:05.130Z,100342.88
2022-12-31T14:53:18.478Z,100351.63
2022-12-31T14:55:26.127Z,100352.53
2022-12-31T14:58:01.412Z,100345.50
2022-12-31T15:00:26.437Z,100337.63
2022-12-31T15:02:32.611Z,100344.59
2022-12-31T15:04:45.720Z,100342.88
2022-12-31T15:06:59.359Z,100347.25
2022-12-31T15:09:14.509Z,100329.72
2022-12-31T15:11:28.196Z,100343.75
2022-12-31T15:13:47.456Z,100354.28
2022-12-31T15:16:20.210Z,100352.53
2022-12-31T15:18:36.143Z,100355.16
2022-12-31T15:20:50.543Z,100361.28
2022-12-31T15:22:55.125Z,100362.16
2022-12-31T15:25:00.323Z,100377.06
2022-12-31T15:27:06.503Z,100380.56
2022-12-31T15:29:32.110Z,100378.81
2022-12-31T15:31:37.413Z,100368.28
2022-12-31T15:33:42.746Z,100371.81
2022-12-31T15:35:50.353Z,100365.69
2022-12-31T15:38:01.187Z,100389.34
2022-12-31T15:40:20.201Z,100387.59
2022-12-31T15:42:38.319Z,100393.72
2022-12-31T15:44:49.999Z,100385.81
2022-12-31T15:46:58.808Z,100398.13
2022-12-31T15:49:10.287Z,100376.19
2022-12-31T15:51:21.017Z,100386.72
2022-12-31T15:53:29.750Z,100377.94
2022-12-31T15:55:38.608Z,100400.75
2022-12-31T15:57:43.264Z,100393.72
2022-12-31T15:59:48.552Z,100400.75
2022-12-31T16:01:51.987Z,100381.47
2022-12-31T16:03:58.915Z,100390.22
2022-12-31T16:06:04.665Z,100392.84
2022-12-31T16:08:08.099Z,100390.22
2022-12-31T16:10:19.717Z,100383.22
2022-12-31T16:12:32.958Z,100396.34
2022-12-31T16:14:40.381Z,100391.09
2022-12-31T16:16:54.192Z,100396.34
2022-12-31T16:18:58.568Z,100399.00
2022-12-31T16:21:01.965Z,100403.38
2022-12-31T16:23:21.599Z,100407.78
2022-12-31T16:25:33.673Z,100400.75
2022-12-31T16:27:37.311Z,100390.22
2022-12-31T16:29:47.263Z,100391.97
2022-12-31T16:31:55.938Z,100384.97
2022-12-31T16:34:07.646Z,100390.22
2022-12-31T16:36:21.390Z,100388.44
2022-12-31T16:38:33.190Z,100391.94
2022-12-31T16:40:36.693Z,100382.28
2022-12-31T16:42:44.358Z,100377.03
2022-12-31T16:44:48.708Z,100386.69
2022-12-31T16:46:52.096Z,100381.41
2022-12-31T16:49:00.203Z,100391.94
2022-12-31T16:51:04.625Z,100392.81
2022-12-31T16:53:09.125Z,100395.44
2022-12-31T16:55:18.369Z,100391.94
2022-12-31T16:57:24.949Z,100387.56
2022-12-31T16:59:35.348Z,100384.03
2022-12-31T17:01:39.737Z,100395.44
2022-12-31T17:03:46.307Z,100404.22
2022-12-31T17:06:01.612Z,100388.41
2022-12-31T17:08:24.005Z,100394.53
2022-12-31T17:10:34.840Z,100389.28
2022-12-31T17:13:25.007Z,100398.03
2022-12-31T17:15:17.435Z,100385.78
2022-12-31T17:17:24.698Z,100404.19
2022-12-31T17:19:41.326Z,100398.94
2022-12-31T17:21:48.567Z,100391.91
2022-12-31T17:23:56.521Z,100396.28
2022-12-31T17:26:02.319Z,100392.75
2022-12-31T17:28:08.835Z,100391.91
2022-12-31T17:30:22.099Z,100398.91
2022-12-31T17:32:31.379Z,100387.50
2022-12-31T17:34:37.753Z,100412.03
2022-12-31T17:36:42.425Z,100391.91
2022-12-31T17:38:47.285Z,100392.78
2022-12-31T17:40:53.315Z,100386.63
2022-12-31T17:42:57.404Z,100384.88
2022-12-31T17:45:03.124Z,100391.03
2022-12-31T17:47:09.049Z,100367.34
2022-12-31T17:49:14.033Z,100372.59
2022-12-31T17:51:17.442Z,100376.09
2022-12-31T17:53:28.533Z,100370.84
2022-12-31T17:55:33.976Z,100363.84
2022-12-31T17:57:37.865Z,100367.31
2022-12-31T17:59:41.247Z,100373.47
2022-12-31T18:01:45.163Z,100387.47
2022-12-31T18:03:48.874Z,100359.38
2022-12-31T18:05:52.299Z,100383.09
2022-12-31T18:07:55.677Z,100382.22
2022-12-31T18:09:58.969Z,100381.31
2022-12-31T18:12:05.081Z,100367.31
2022-12-31T18:14:08.645Z,100374.31
2022-12-31T18:16:12.118Z,100376.09
2022-12-31T18:18:24.791Z,100381.31
2022-12-31T18:20:29.003Z,100376.94
2022-12-31T18:22:32.559Z,100373.47
2022-12-31T18:24:36.223Z,100375.22
2022-12-31T18:26:42.236Z,100372.59
2022-12-31T18:28:47.599Z,100366.47
2022-12-31T18:30:51.265Z,100365.59
2022-12-31T18:32:54.962Z,100365.56
2022-12-31T18:34:58.287Z,100377.84
2022-12-31T18:37:01.716Z,100367.34
2022-12-31T18:39:05.315Z,100369.09
2022-12-31T18:41:14.148Z,100365.56
2022-12-31T18:43:19.097Z,100367.34
2022-12-31T18:45:24.780Z,100372.59
2022-12-31T18:47:31.415Z,100374.34
2022-12-31T18:49:40.852Z,100381.34
2022-12-31T18:51:44.171Z,100378.72
2022-12-31T18:53:47.871Z,100366.47
2022-12-31T18:55:52.876Z,100381.34
2022-12-31T18:57:56.251Z,100380.47
2022-12-31T18:59:59.571Z,100375.22
2022-12-31T19:02:04.654Z,100374.38
2022-12-31T19:04:14.035Z,100370.81
2022-12-31T19:06:17.372Z,100369.97
2022-12-31T19:08:22.794Z,100366.47
2022-12-31T19:10:27.202Z,100365.56
2022-12-31T19:12:30.544Z,100383.97
2022-12-31T19:14:33.894Z,100375.25
2022-12-31T19:16:37.198Z,100378.75
2022-12-31T19:18:42.391Z,100376.97
2022-12-31T19:20:46.191Z,100366.47
2022-12-31T19:22:49.595Z,100371.72
2022-12-31T19:24:52.877Z,100382.22
2022-12-31T19:26:56.218Z,100371.75
2022-12-31T19:28:59.538Z,100376.97
2022-12-31T19:31:02.845Z,100377.88
2022-12-31T19:33:06.263Z,100384.00
2022-12-31T19:35:13.214Z,100381.38
2022-12-31T19:37:16.655Z,100385.75
2022-12-31T19:39:22.374Z,100385.75
2022-12-31T19:41:25.759Z,100387.47
2022-12-31T19:43:29.185Z,100396.25
2022-12-31T19:45:32.970Z,100399.78
2022-12-31T19:47:42.445Z,100402.41
2022-12-31T19:49:45.950Z,100378.72
2022-12-31T19:51:50.905Z,100419.03
2022-12-31T19:53:54.207Z,100424.28
2022-12-31T19:55:57.509Z,100423.41
2022-12-31T19:58:00.805Z,100422.53
2022-12-31T20:00:05.016Z,100428.72
2022-12-31T20:02:17.179Z,100432.19
2022-12-31T20:04:21.638Z,100433.97
2022-12-31T20:06:24.959Z,100437.47
2022-12-31T20:08:29.702Z,100425.19
2022-12-31T20:10:33.046Z,100453.25
2022-12-31T20:12:42.185Z,100449.75
2022-12-31T20:14:47.517Z,100447.97
2022-12-31T20:16:52.467Z,100457.59
2022-12-31T20:18:56.085Z,100461.16
2022-12-31T20:20:59.481Z,100461.13
2022-12-31T20:23:02.824Z,100470.78
2022-12-31T20:25:08.287Z,100470.78
2022-12-31T20:27:18.250Z,100477.78
2022-12-31T20:29:21.978Z,100475.16
2022-12-31T20:31:26.494Z,100488.28
2022-12-31T20:33:31.756Z,100473.41
2022-12-31T20:35:35.059Z,100479.53
2022-12-31T20:37:38.423Z,100487.44
2022-12-31T20:39:42.630Z,100483.88
2022-12-31T20:41:47.449Z,100489.16
2022-12-31T20:43:51.871Z,100488.28
2022-12-31T20:45:55.384Z,100480.38
2022-12-31T20:47:58.916Z,100489.19
2022-12-31T20:50:11.717Z,100484.78
2022-12-31T20:52:15.698Z,100472.47
2022-12-31T20:54:18.990Z,100489.16
2022-12-31T20:56:23.269Z,100497.06
2022-12-31T20:58:28.003Z,100498.81
2022-12-31T21:00:31.425Z,100499.66
2022-12-31T21:02:42.253Z,100494.44
2022-12-31T21:04:46.925Z,100500.53
2022-12-31T21:06:52.200Z,100501.41
2022-12-31T21:08:56.127Z,100500.56
2022-12-31T21:10:59.577Z,100488.28
2022-12-31T21:13:01.979Z,100507.59
2022-12-31T21:15:07.996Z,100505.81
2022-12-31T21:17:11.383Z,100511.06
2022-12-31T21:19:14.749Z,100515.44
2022-12-31T21:21:18.429Z,100517.22
2022-12-31T21:23:21.713Z,100526.00
2022-12-31T21:25:25.024Z,100528.59
2022-12-31T21:27:29.025Z,100526.00
2022-12-31T21:29:34.702Z,100527.75
2022-12-31T21:31:42.817Z,100525.97
2022-12-31T21:33:46.448Z,100522.44
2022-12-31T21:35:53.889Z,100532.09
2022-12-31T21:38:01.251Z,100513.63
2022-12-31T21:40:06.091Z,100523.34
2022-12-31T21:42:09.570Z,100529.47
2022-12-31T21:44:12.987Z,100532.09
2022-12-31T21:46:16.575Z,100532.06
2022-12-31T21:48:22.088Z,100524.13
2022-12-31T21:50:25.470Z,100513.50
2022-12-31T21:52:30.520Z,100538.03
2022-12-31T21:54:50.636Z,100526.59
2022-12-31T21:56:53.929Z,100518.69
2022-12-31T21:59:17.137Z,100539.69
2022-12-31T22:01:39.989Z,100528.25
2022-12-31T22:03:44.864Z,100521.25
2022-12-31T22:05:50.544Z,100530.88
2022-12-31T22:07:53.895Z,100529.94
2022-12-31T22:09:57.452Z,100526.44
2022-12-31T22:12:00.774Z,100522.97
2022-12-31T22:14:04.291Z,100522.94
2022-12-31T22:16:08.709Z,100525.59
2022-12-31T22:18:12.700Z,100522.06
2022-12-31T22:20:27.035Z,100538.72
2022-12-31T22:22:31.074Z,100521.25
2022-12-31T22:24:34.534Z,100535.25
2022-12-31T22:26:43.054Z,100535.28
2022-12-31T22:28:48.580Z,100537.91
2022-12-31T22:30:52.190Z,100537.94
2022-12-31T22:32:55.683Z,100546.72
2022-12-31T22:34:59.004Z,100546.75
2022-12-31T22:37:20.329Z,100551.94
2022-12-31T22:39:43.483Z,100553.72
2022-12-31T22:41:48.032Z,100545.00
2022-12-31T22:43:57.221Z,100558.13
2022-12-31T22:46:11.741Z,100551.16
2022-12-31T22:48:15.214Z,100545.06
2022-12-31T22:50:19.056Z,100544.22
2022-12-31T22:52:23.979Z,100558.28
2022-12-31T22:54:27.274Z,100544.25
2022-12-31T22:56:30.565Z,100550.41
2022-12-31T22:58:34.066Z,100554.78
2022-12-31T23:00:40.397Z,100561.84
2022-12-31T23:02:43.820Z,100549.56
2022-12-31T23:04:47.239Z,100553.97
2022-12-31T23:06:50.519Z,100558.34
2022-12-31T23:09:12.818Z,100553.09
2022-12-31T23:11:16.130Z,100547.88
2022-12-31T23:13:36.921Z,100543.50
2022-12-31T23:15:57.929Z,100532.06
2022-12-31T23:18:19.100Z,100547.00
2022-12-31T23:20:42.900Z,100547.00
2022-12-31T23:23:03.571Z,100537.38
2022-12-31T23:25:09.018Z,100547.00
2022-12-31T23:27:13.197Z,100547.00
2022-12-31T23:29:16.570Z,100536.47
2022-12-31T23:31:20.000Z,100546.13
2022-12-31T23:33:25.725Z,100543.50
2022-12-31T23:35:29.684Z,100549.66
2022-12-31T23:37:34.334Z,100557.56
2022-12-31T23:39:37.833Z,100554.06
2022-12-31T23:41:42.688Z,100546.19
2022-12-31T23:43:46.548Z,100547.06
2022-12-31T23:45:50.919Z,100561.94
2022-12-31T23:47:54.449Z,100552.28
2022-12-31T23:49:57.819Z,100559.34
2022-12-31T23:52:01.302Z,100559.34
2022-12-31T23:54:04.695Z,100559.38
2022-12-31T23:56:14.914Z,100566.38
2022-12-31T23:58:23.183Z,100560.25
